createdAt,value
2019-01-03T00:01:50.497Z,-13.90
2019-01-03T00:04:23.994Z,-13.81
2019-01-03T00:06:56.998Z,-13.67
2019-01-03T00:09:30.014Z,-13.60
2019-01-03T00:12:02.776Z,-13.39
2019-01-03T00:14:35.966Z,-13.37
2019-01-03T00:17:08.993Z,-13.34
2019-01-03T00:19:42.045Z,-13.22
2019-01-03T00:22:14.894Z,-13.10
2019-01-03T00:24:48.202Z,-12.89
2019-01-03T00:27:21.215Z,-12.70
2019-01-03T00:29:54.202Z,-12.51
2019-01-03T00:32:27.219Z,-12.45
2019-01-03T00:35:02.980Z,-12.17
2019-01-03T00:37:35.846Z,-11.75
2019-01-03T00:40:10.647Z,-11.54
2019-01-03T00:42:43.735Z,-11.35
2019-01-03T00:45:16.849Z,-11.34
2019-01-03T00:47:49.928Z,-11.35
2019-01-03T00:50:22.957Z,-11.09
2019-01-03T00:52:56.148Z,-10.87
2019-01-03T00:55:29.385Z,-10.76
2019-01-03T00:58:02.781Z,-10.64
2019-01-03T01:00:35.655Z,-10.47
2019-01-03T01:03:08.859Z,-10.27
2019-01-03T01:05:41.862Z,-10.17
2019-01-03T01:08:14.678Z,-10.06
2019-01-03T01:10:47.781Z,-10.00
2019-01-03T01:13:30.907Z,-9.87
2019-01-03T01:16:03.957Z,-9.82
2019-01-03T01:18:36.951Z,-9.78
2019-01-03T01:21:10.305Z,-9.72
2019-01-03T01:23:43.314Z,-9.64
2019-01-03T01:26:16.700Z,-9.57
2019-01-03T01:28:49.644Z,-9.46
2019-01-03T01:31:22.711Z,-9.31
2019-01-03T01:33:56.519Z,-9.23
2019-01-03T01:36:30.395Z,-9.08
2019-01-03T01:39:06.745Z,-9.07
2019-01-03T01:41:39.531Z,-9.02
2019-01-03T01:44:12.689Z,-8.96
2019-01-03T01:46:45.626Z,-8.98
2019-01-03T01:49:18.925Z,-8.87
2019-01-03T01:51:51.979Z,-8.56
2019-01-03T01:54:25.579Z,-8.49
2019-01-03T01:56:58.551Z,-8.50
2019-01-03T01:59:31.567Z,-8.29
2019-01-03T02:02:05.798Z,-8.24
2019-01-03T02:04:39.031Z,-8.05
2019-01-03T02:07:12.493Z,-7.86
2019-01-03T02:09:45.592Z,-7.79
2019-01-03T02:12:18.520Z,-7.50
2019-01-03T02:14:51.489Z,-7.37
2019-01-03T02:17:24.924Z,-7.33
2019-01-03T02:19:58.109Z,-7.24
2019-01-03T02:22:31.251Z,-7.31
2019-01-03T02:25:04.755Z,-7.39
2019-01-03T02:27:38.338Z,-7.35
2019-01-03T02:30:11.624Z,-7.24
2019-01-03T02:32:44.517Z,-7.24
2019-01-03T02:35:17.580Z,-7.12
2019-01-03T02:37:50.795Z,-6.88
2019-01-03T02:40:23.772Z,-6.46
2019-01-03T02:42:57.294Z,-6.46
2019-01-03T02:45:30.371Z,-6.48
2019-01-03T02:48:03.591Z,-6.61
2019-01-03T02:50:57.395Z,-6.59
2019-01-03T02:53:30.479Z,-6.45
2019-01-03T02:56:03.361Z,-6.37
2019-01-03T02:58:48.530Z,-6.16
2019-01-03T03:01:22.598Z,-6.06
2019-01-03T03:03:55.721Z,-6.20
2019-01-03T03:06:28.826Z,-6.20
2019-01-03T03:09:01.878Z,-6.00
2019-01-03T03:11:34.719Z,-5.69
2019-01-03T03:14:07.778Z,-5.18
2019-01-03T03:16:40.576Z,-5.02
2019-01-03T03:19:13.468Z,-5.11
2019-01-03T03:21:46.596Z,-5.10
2019-01-03T03:24:19.765Z,-4.68
2019-01-03T03:26:52.804Z,-4.79
2019-01-03T03:29:35.873Z,-4.53
2019-01-03T03:32:20.453Z,-4.44
2019-01-03T03:34:53.655Z,-4.38
2019-01-03T03:37:26.480Z,-4.08
2019-01-03T03:40:00.126Z,-4.15
2019-01-03T03:42:33.357Z,-4.53
2019-01-03T03:45:06.544Z,-4.47
2019-01-03T03:47:39.670Z,-4.57
2019-01-03T03:50:12.475Z,-4.71
2019-01-03T03:52:46.015Z,-4.54
2019-01-03T03:55:19.238Z,-4.42
2019-01-03T03:57:52.226Z,-4.17
2019-01-03T04:00:25.759Z,-4.13
2019-01-03T04:02:59.021Z,-3.91
2019-01-03T04:05:32.124Z,-3.58
2019-01-03T04:08:05.130Z,-3.53
2019-01-03T04:10:38.043Z,-3.31
2019-01-03T04:13:11.018Z,-3.33
2019-01-03T04:15:44.007Z,-3.22
2019-01-03T04:18:17.659Z,-3.13
2019-01-03T04:20:50.810Z,-3.04
2019-01-03T04:23:23.875Z,-3.09
2019-01-03T04:25:56.879Z,-3.04
2019-01-03T04:28:30.193Z,-2.98
2019-01-03T04:31:03.335Z,-3.07
2019-01-03T04:33:36.232Z,-2.83
2019-01-03T04:36:09.184Z,-2.61
2019-01-03T04:38:42.295Z,-2.80
2019-01-03T04:41:15.318Z,-2.70
2019-01-03T04:43:48.416Z,-2.49
2019-01-03T04:46:21.916Z,-2.47
2019-01-03T04:48:55.077Z,-2.41
2019-01-03T04:51:28.525Z,-2.35
2019-01-03T04:54:01.947Z,-2.38
2019-01-03T04:56:36.843Z,-2.41
2019-01-03T04:59:10.129Z,-2.59
2019-01-03T05:01:52.448Z,-2.51
2019-01-03T05:04:31.123Z,-2.52
2019-01-03T05:07:13.595Z,-2.40
2019-01-03T05:10:00.899Z,-2.20
2019-01-03T05:12:34.157Z,-2.27
2019-01-03T05:15:10.635Z,-2.34
2019-01-03T05:17:47.972Z,-2.22
2019-01-03T05:20:21.197Z,-2.25
2019-01-03T05:22:54.321Z,-2.20
2019-01-03T05:25:27.517Z,-2.17
2019-01-03T05:28:00.627Z,-2.24
2019-01-03T05:30:33.709Z,-2.28
2019-01-03T05:33:06.776Z,-2.30
2019-01-03T05:35:39.885Z,-2.32
2019-01-03T05:38:12.892Z,-2.47
2019-01-03T05:40:46.903Z,-2.58
2019-01-03T05:43:20.092Z,-2.50
2019-01-03T05:45:53.057Z,-2.50
2019-01-03T05:48:26.158Z,-2.31
2019-01-03T05:50:59.622Z,-2.35
2019-01-03T05:53:37.919Z,-2.26
2019-01-03T05:56:13.822Z,-2.26
2019-01-03T05:58:46.965Z,-2.28
2019-01-03T06:01:20.078Z,-2.34
2019-01-03T06:03:53.283Z,-2.34
2019-01-03T06:06:26.967Z,-2.33
2019-01-03T06:09:00.195Z,-2.52
2019-01-03T06:11:33.263Z,-2.57
2019-01-03T06:14:07.192Z,-2.46
2019-01-03T06:16:41.237Z,-2.41
2019-01-03T06:19:14.570Z,-2.37
2019-01-03T06:21:48.536Z,-2.44
2019-01-03T06:24:22.378Z,-2.37
2019-01-03T06:26:57.210Z,-2.38
2019-01-03T06:29:31.073Z,-2.45
2019-01-03T06:32:04.834Z,-2.41
2019-01-03T06:34:38.691Z,-2.52
2019-01-03T06:37:12.502Z,-2.64
2019-01-03T06:39:46.407Z,-2.60
2019-01-03T06:42:20.121Z,-2.70
2019-01-03T06:44:53.366Z,-2.56
2019-01-03T06:47:26.263Z,-2.44
2019-01-03T06:49:59.307Z,-2.52
2019-01-03T06:52:51.771Z,-2.62
2019-01-03T06:55:24.882Z,-2.64
2019-01-03T06:57:57.771Z,-2.64
2019-01-03T07:00:31.038Z,-2.71
2019-01-03T07:03:04.173Z,-2.63
2019-01-03T07:05:37.142Z,-2.67
2019-01-03T07:08:10.502Z,-2.87
2019-01-03T07:10:43.990Z,-3.03
2019-01-03T07:13:17.598Z,-3.13
2019-01-03T07:15:50.669Z,-3.04
2019-01-03T07:18:24.183Z,-3.04
2019-01-03T07:20:57.215Z,-3.02
2019-01-03T07:23:31.218Z,-2.96
2019-01-03T07:26:04.578Z,-3.04
2019-01-03T07:28:37.756Z,-3.05
2019-01-03T07:31:30.300Z,-3.04
2019-01-03T07:34:05.679Z,-2.99
2019-01-03T07:36:41.071Z,-3.20
2019-01-03T07:39:14.314Z,-3.09
2019-01-03T07:41:47.428Z,-3.13
2019-01-03T07:44:20.414Z,-3.15
2019-01-03T07:46:53.276Z,-3.14
2019-01-03T07:49:26.394Z,-3.16
2019-01-03T07:51:59.494Z,-3.24
2019-01-03T07:54:34.281Z,-3.17
2019-01-03T07:57:07.765Z,-3.25
2019-01-03T07:59:41.847Z,-3.21
2019-01-03T08:02:15.054Z,-3.30
2019-01-03T08:04:48.434Z,-3.22
2019-01-03T08:07:21.750Z,-3.16
2019-01-03T08:10:09.091Z,-3.24
2019-01-03T08:12:49.031Z,-3.19
2019-01-03T08:15:33.900Z,-3.16
2019-01-03T08:18:06.946Z,-3.32
2019-01-03T08:23:51.521Z,-3.43
2019-01-03T08:26:53.184Z,-3.68
2019-01-03T08:29:43.987Z,-3.71
2019-01-03T08:32:20.815Z,-3.59
2019-01-03T08:35:19.541Z,-3.58
2019-01-03T08:40:59.306Z,-3.65
2019-01-03T08:43:32.416Z,-3.79
2019-01-03T08:46:05.866Z,-3.98
2019-01-03T08:48:39.562Z,-3.95
2019-01-03T08:51:12.563Z,-4.08
2019-01-03T08:53:46.629Z,-4.21
2019-01-03T08:56:19.808Z,-4.26
2019-01-03T08:58:55.556Z,-4.19
2019-01-03T09:01:37.571Z,-4.40
2019-01-03T09:04:18.544Z,-4.37
2019-01-03T09:07:03.915Z,-4.34
2019-01-03T09:09:44.194Z,-4.52
2019-01-03T09:15:43.718Z,-4.20
2019-01-03T09:18:25.552Z,-4.36
2019-01-03T09:20:58.820Z,-4.44
2019-01-03T09:23:32.117Z,-4.54
2019-01-03T09:26:05.782Z,-4.56
2019-01-03T09:28:39.580Z,-4.52
2019-01-03T09:31:12.854Z,-4.58
2019-01-03T09:33:45.833Z,-4.64
2019-01-03T09:36:18.783Z,-4.58
2019-01-03T09:38:51.901Z,-4.64
2019-01-03T09:41:24.946Z,-4.75
2019-01-03T09:43:58.005Z,-4.82
2019-01-03T09:46:31.190Z,-4.71
2019-01-03T09:49:04.956Z,-4.81
2019-01-03T09:51:38.129Z,-4.84
2019-01-03T09:54:11.409Z,-4.75
2019-01-03T09:56:44.572Z,-4.78
2019-01-03T09:59:17.812Z,-4.90
2019-01-03T10:01:50.704Z,-4.85
2019-01-03T10:04:23.889Z,-5.08
2019-01-03T10:06:57.220Z,-4.87
2019-01-03T10:09:30.291Z,-5.06
2019-01-03T10:12:03.323Z,-5.03
2019-01-03T10:14:39.611Z,-4.69
2019-01-03T10:17:13.340Z,-4.73
2019-01-03T10:19:46.464Z,-4.78
2019-01-03T10:22:19.119Z,-4.72
2019-01-03T10:24:52.112Z,-4.76
2019-01-03T10:27:25.269Z,-4.85
2019-01-03T10:29:58.454Z,-5.12
2019-01-03T10:32:31.548Z,-5.25
2019-01-03T10:35:04.778Z,-5.37
2019-01-03T10:37:38.035Z,-5.16
2019-01-03T10:40:26.130Z,-5.20
2019-01-03T10:42:59.920Z,-5.37
2019-01-03T10:45:32.941Z,-5.24
2019-01-03T10:48:06.253Z,-5.18
2019-01-03T10:50:39.512Z,-5.30
2019-01-03T10:53:13.586Z,-5.34
2019-01-03T10:55:47.028Z,-5.28
2019-01-03T10:58:21.147Z,-5.20
2019-01-03T11:00:55.168Z,-4.95
2019-01-03T11:03:29.669Z,-4.83
2019-01-03T11:06:02.670Z,-4.83
2019-01-03T11:08:36.296Z,-5.13
2019-01-03T11:11:10.770Z,-4.98
2019-01-03T11:13:44.594Z,-5.00
2019-01-03T11:16:19.867Z,-5.08
2019-01-03T11:18:54.481Z,-5.23
2019-01-03T11:21:31.279Z,-5.20
2019-01-03T11:24:04.494Z,-5.23
2019-01-03T11:26:38.738Z,-5.17
2019-01-03T11:29:13.157Z,-5.37
2019-01-03T11:31:46.157Z,-5.32
2019-01-03T11:34:19.098Z,-5.36
2019-01-03T11:36:52.128Z,-5.54
2019-01-03T11:39:25.293Z,-5.61
2019-01-03T11:41:58.427Z,-5.84
2019-01-03T11:44:32.494Z,-6.09
2019-01-03T11:47:05.695Z,-6.11
2019-01-03T11:49:38.903Z,-6.17
2019-01-03T11:52:12.036Z,-6.23
2019-01-03T11:54:45.131Z,-6.33
2019-01-03T11:57:18.321Z,-6.37
2019-01-03T11:59:51.754Z,-6.35
2019-01-03T12:02:25.663Z,-6.41
2019-01-03T12:04:59.089Z,-6.24
2019-01-03T12:07:33.155Z,-6.24
2019-01-03T12:10:06.449Z,-6.42
2019-01-03T12:12:39.867Z,-6.55
2019-01-03T12:15:13.389Z,-6.62
2019-01-03T12:17:46.875Z,-6.68
2019-01-03T12:20:20.329Z,-6.70
2019-01-03T12:22:53.940Z,-6.71
2019-01-03T12:25:30.096Z,-6.88
2019-01-03T12:28:05.036Z,-6.83
2019-01-03T12:30:38.953Z,-6.89
2019-01-03T12:33:18.885Z,-6.82
2019-01-03T12:36:10.308Z,-6.84
2019-01-03T12:38:43.660Z,-6.93
2019-01-03T12:41:28.058Z,-6.95
2019-01-03T12:44:07.708Z,-7.04
2019-01-03T12:50:05.343Z,-6.62
2019-01-03T12:52:53.378Z,-6.97
2019-01-03T12:55:31.627Z,-7.06
2019-01-03T12:58:30.405Z,-6.89
2019-01-03T13:04:23.337Z,-6.90
2019-01-03T13:07:07.595Z,-7.04
2019-01-03T13:09:41.733Z,-7.07
2019-01-03T13:12:15.238Z,-7.14
2019-01-03T13:14:53.450Z,-7.26
2019-01-03T13:17:27.284Z,-7.20
2019-01-03T13:20:01.291Z,-7.06
2019-01-03T13:22:35.587Z,-7.15
2019-01-03T13:25:09.414Z,-7.04
2019-01-03T13:27:42.766Z,-7.14
2019-01-03T13:30:16.126Z,-7.26
2019-01-03T13:32:49.954Z,-7.29
2019-01-03T13:35:23.687Z,-7.16
2019-01-03T13:37:56.703Z,-7.33
2019-01-03T13:40:30.722Z,-7.26
2019-01-03T13:43:03.953Z,-7.17
2019-01-03T13:45:37.291Z,-7.22
2019-01-03T13:48:10.405Z,-7.26
2019-01-03T13:50:43.635Z,-7.28
2019-01-03T13:53:17.259Z,-7.23
2019-01-03T13:55:50.923Z,-7.13
2019-01-03T13:58:24.059Z,-7.09
2019-01-03T14:00:57.575Z,-7.07
2019-01-03T14:03:30.579Z,-6.94
2019-01-03T14:06:03.628Z,-6.76
2019-01-03T14:08:36.664Z,-6.71
2019-01-03T14:11:10.243Z,-6.73
2019-01-03T14:13:44.330Z,-6.69
2019-01-03T14:16:18.193Z,-6.51
2019-01-03T14:18:52.348Z,-6.38
2019-01-03T14:21:25.789Z,-6.26
2019-01-03T14:24:02.285Z,-6.00
2019-01-03T14:26:35.746Z,-5.83
2019-01-03T14:29:09.426Z,-5.70
2019-01-03T14:31:44.020Z,-5.61
2019-01-03T14:34:19.022Z,-5.65
2019-01-03T14:36:52.915Z,-5.85
2019-01-03T14:39:26.419Z,-5.93
2019-01-03T14:41:59.705Z,-5.99
2019-01-03T14:44:32.975Z,-5.93
2019-01-03T14:47:05.945Z,-5.82
2019-01-03T14:49:39.898Z,-5.59
2019-01-03T14:52:13.126Z,-5.35
2019-01-03T14:54:47.908Z,-5.30
2019-01-03T14:57:20.746Z,-5.46
2019-01-03T14:59:57.513Z,-5.62
2019-01-03T15:02:30.783Z,-5.79
2019-01-03T15:05:03.801Z,-5.74
2019-01-03T15:07:36.785Z,-5.79
2019-01-03T15:10:10.682Z,-5.71
2019-01-03T15:12:43.652Z,-5.57
2019-01-03T15:15:16.657Z,-5.57
2019-01-03T15:17:49.419Z,-5.55
2019-01-03T15:20:22.376Z,-5.55
2019-01-03T15:22:55.423Z,-5.63
2019-01-03T15:25:28.317Z,-5.62
2019-01-03T15:28:01.390Z,-5.55
2019-01-03T15:30:34.368Z,-5.40
2019-01-03T15:33:07.305Z,-5.32
2019-01-03T15:35:40.345Z,-4.75
2019-01-03T15:38:13.463Z,-4.52
2019-01-03T15:40:46.499Z,-4.45
2019-01-03T15:43:19.691Z,-4.38
2019-01-03T15:45:52.743Z,-4.30
2019-01-03T15:48:25.759Z,-4.28
2019-01-03T15:50:58.807Z,-4.25
2019-01-03T15:53:31.831Z,-4.27
2019-01-03T15:56:06.059Z,-4.32
2019-01-03T15:58:39.512Z,-4.33
2019-01-03T16:01:12.230Z,-4.33
2019-01-03T16:03:46.776Z,-4.34
2019-01-03T16:06:20.330Z,-4.40
2019-01-03T16:08:53.325Z,-4.53
2019-01-03T16:11:26.416Z,-4.46
2019-01-03T16:13:59.600Z,-4.51
2019-01-03T16:16:32.761Z,-4.54
2019-01-03T16:19:05.988Z,-4.53
2019-01-03T16:21:39.212Z,-4.64
2019-01-03T16:24:12.347Z,-4.71
2019-01-03T16:26:46.191Z,-4.67
2019-01-03T16:29:19.449Z,-4.69
2019-01-03T16:31:53.665Z,-4.78
2019-01-03T16:34:26.779Z,-4.83
2019-01-03T16:37:00.022Z,-4.85
2019-01-03T16:39:33.445Z,-4.88
2019-01-03T16:42:06.712Z,-4.88
2019-01-03T16:44:40.629Z,-4.87
2019-01-03T16:47:13.992Z,-4.93
2019-01-03T16:49:47.944Z,-5.01
2019-01-03T16:52:21.046Z,-4.94
2019-01-03T16:54:54.234Z,-5.04
2019-01-03T16:57:37.583Z,-5.18
2019-01-03T17:00:12.634Z,-5.38
2019-01-03T17:02:45.972Z,-5.52
2019-01-03T17:05:19.323Z,-5.50
2019-01-03T17:07:52.470Z,-5.50
2019-01-03T17:10:26.879Z,-5.56
2019-01-03T17:13:00.587Z,-5.69
2019-01-03T17:15:33.691Z,-5.82
2019-01-03T17:18:06.958Z,-5.82
2019-01-03T17:20:49.395Z,-5.90
2019-01-03T17:23:22.387Z,-6.06
2019-01-03T17:25:55.556Z,-6.03
2019-01-03T17:28:28.778Z,-6.09
2019-01-03T17:31:03.102Z,-6.15
2019-01-03T17:33:36.551Z,-6.28
2019-01-03T17:36:09.875Z,-6.32
2019-01-03T17:38:43.008Z,-6.22
2019-01-03T17:41:17.477Z,-6.17
2019-01-03T17:43:50.632Z,-6.31
2019-01-03T17:46:24.959Z,-6.34
2019-01-03T17:48:58.083Z,-6.46
2019-01-03T17:51:33.127Z,-6.50
2019-01-03T17:54:05.651Z,-6.43
2019-01-03T17:56:38.817Z,-6.58
2019-01-03T17:59:11.679Z,-6.66
2019-01-03T18:01:44.565Z,-6.66
2019-01-03T18:04:17.489Z,-6.71
2019-01-03T18:07:09.140Z,-6.70
2019-01-03T18:09:42.318Z,-6.73
2019-01-03T18:12:15.567Z,-6.71
2019-01-03T18:14:48.646Z,-6.79
2019-01-03T18:17:21.776Z,-6.81
2019-01-03T18:19:54.488Z,-6.80
2019-01-03T18:22:27.458Z,-6.88
2019-01-03T18:25:00.438Z,-6.83
2019-01-03T18:27:33.541Z,-6.87
2019-01-03T18:30:13.137Z,-7.02
2019-01-03T18:32:47.471Z,-7.01
2019-01-03T18:35:21.163Z,-7.03
2019-01-03T18:37:54.623Z,-7.13
2019-01-03T18:40:28.101Z,-7.10
2019-01-03T18:43:01.258Z,-7.12
2019-01-03T18:45:34.355Z,-7.08
2019-01-03T18:48:07.393Z,-7.25
2019-01-03T18:50:40.345Z,-7.23
2019-01-03T18:53:13.514Z,-7.39
2019-01-03T18:55:46.669Z,-7.57
2019-01-03T18:58:20.171Z,-7.39
2019-01-03T19:00:53.326Z,-7.49
2019-01-03T19:03:26.323Z,-7.44
2019-01-03T19:05:59.373Z,-7.50
2019-01-03T19:08:32.678Z,-7.50
2019-01-03T19:11:05.746Z,-7.55
2019-01-03T19:13:39.238Z,-7.62
2019-01-03T19:16:12.200Z,-7.67
2019-01-03T19:18:45.295Z,-7.73
2019-01-03T19:21:18.427Z,-7.62
2019-01-03T19:23:55.495Z,-7.63
2019-01-03T19:26:28.594Z,-7.51
2019-01-03T19:29:01.535Z,-7.54
2019-01-03T19:31:34.632Z,-7.41
2019-01-03T19:34:07.634Z,-7.35
2019-01-03T19:36:40.675Z,-7.42
2019-01-03T19:39:13.742Z,-7.53
2019-01-03T19:41:46.767Z,-7.61
2019-01-03T19:44:19.976Z,-7.57
2019-01-03T19:46:52.925Z,-7.52
2019-01-03T19:49:25.969Z,-7.53
2019-01-03T19:51:58.991Z,-7.48
2019-01-03T19:54:32.027Z,-7.51
2019-01-03T19:57:04.975Z,-7.59
2019-01-03T19:59:38.393Z,-7.71
2019-01-03T20:02:11.465Z,-7.67
2019-01-03T20:04:44.372Z,-7.74
2019-01-03T20:07:36.866Z,-7.67
2019-01-03T20:10:12.379Z,-7.69
2019-01-03T20:12:45.917Z,-7.68
2019-01-03T20:15:18.939Z,-7.82
2019-01-03T20:17:51.879Z,-7.89
2019-01-03T20:20:24.918Z,-7.86
2019-01-03T20:22:57.960Z,-7.91
2019-01-03T20:25:30.973Z,-7.85
2019-01-03T20:28:03.895Z,-7.97
2019-01-03T20:30:37.523Z,-8.05
2019-01-03T20:33:10.655Z,-8.17
2019-01-03T20:35:43.627Z,-8.02
2019-01-03T20:38:16.873Z,-7.96
2019-01-03T20:41:07.137Z,-8.02
2019-01-03T20:43:43.173Z,-8.10
2019-01-03T20:46:15.099Z,-8.04
2019-01-03T20:48:48.040Z,-8.00
2019-01-03T20:51:27.123Z,-8.26
2019-01-03T20:54:00.254Z,-8.29
2019-01-03T20:56:33.393Z,-8.15
2019-01-03T20:59:06.501Z,-8.16
2019-01-03T21:01:39.435Z,-8.21
2019-01-03T21:04:12.367Z,-8.22
2019-01-03T21:06:45.565Z,-8.20
2019-01-03T21:09:18.753Z,-8.47
2019-01-03T21:11:51.743Z,-8.32
2019-01-03T21:14:24.525Z,-8.35
2019-01-03T21:16:57.405Z,-8.24
2019-01-03T21:19:30.416Z,-8.22
2019-01-03T21:22:03.449Z,-8.15
2019-01-03T21:24:36.557Z,-8.09
2019-01-03T21:27:09.566Z,-8.23
2019-01-03T21:29:42.513Z,-8.37
2019-01-03T21:32:15.698Z,-8.57
2019-01-03T21:34:48.929Z,-8.43
2019-01-03T21:37:21.854Z,-8.49
2019-01-03T21:39:55.034Z,-8.49
2019-01-03T21:42:28.126Z,-8.25
2019-01-03T21:45:01.096Z,-8.34
2019-01-03T21:47:34.089Z,-8.33
2019-01-03T21:50:11.015Z,-8.29
2019-01-03T21:52:43.583Z,-8.31
2019-01-03T21:55:16.749Z,-8.47
2019-01-03T21:57:51.249Z,-8.59
2019-01-03T22:00:24.032Z,-8.53
2019-01-03T22:02:57.013Z,-8.50
2019-01-03T22:05:30.018Z,-8.36
2019-01-03T22:08:11.796Z,-8.48
2019-01-03T22:10:44.815Z,-8.47
2019-01-03T22:13:18.044Z,-8.44
2019-01-03T22:15:51.207Z,-8.44
2019-01-03T22:18:24.158Z,-8.52
2019-01-03T22:20:57.043Z,-8.78
2019-01-03T22:23:30.042Z,-8.83
2019-01-03T22:26:03.021Z,-8.77
2019-01-03T22:28:35.916Z,-8.81
2019-01-03T22:31:08.846Z,-8.82
2019-01-03T22:33:41.931Z,-8.73
2019-01-03T22:36:14.943Z,-8.79
2019-01-03T22:38:47.869Z,-8.92
2019-01-03T22:41:20.937Z,-8.93
2019-01-03T22:43:54.048Z,-8.96
2019-01-03T22:46:27.020Z,-9.11
2019-01-03T22:49:00.201Z,-9.21
2019-01-03T22:51:33.829Z,-9.44
2019-01-03T22:54:06.712Z,-9.43
2019-01-03T22:56:39.795Z,-9.40
2019-01-03T22:59:12.799Z,-9.40
2019-01-03T23:02:05.072Z,-9.45
2019-01-03T23:04:38.086Z,-9.35
2019-01-03T23:07:11.313Z,-9.44
2019-01-03T23:09:44.370Z,-9.49
2019-01-03T23:12:17.300Z,-9.53
2019-01-03T23:14:50.385Z,-9.52
2019-01-03T23:17:23.435Z,-9.55
2019-01-03T23:19:56.408Z,-9.71
2019-01-03T23:22:29.303Z,-9.66
2019-01-03T23:25:02.212Z,-9.63
2019-01-03T23:27:35.088Z,-9.88
2019-01-03T23:30:09.981Z,-9.88
2019-01-03T23:32:43.325Z,-9.82
2019-01-03T23:35:16.577Z,-9.96
2019-01-03T23:37:49.547Z,-9.84
2019-01-03T23:40:22.636Z,-9.81
2019-01-03T23:42:55.501Z,-9.72
2019-01-03T23:45:52.077Z,-9.66
2019-01-03T23:48:25.709Z,-9.82
2019-01-03T23:50:58.938Z,-9.80
2019-01-03T23:53:32.306Z,-9.93
2019-01-03T23:56:05.299Z,-9.95
2019-01-03T23:58:38.318Z,-9.90
